Time,TemperatureF,DewpointF,PressureIn,WindDirection,WindDirectionDegrees,WindSpeedMPH,WindSpeedGustMPH,Humidity,HourlyPrecipIn,Conditions,Clouds,dailyrainin,SoftwareType,DateUTC
2013-03-23 00:00:00,62.6,61.2,30.00,East,93,4.0,4.0,95,0.00,,BKN048,0.12,VWS V14.01,2013-03-23 04:00:00,
2013-03-23 00:01:00,62.6,61.2,30.00,East,93,2.0,4.0,95,0.00,,OVC080,0.00,VWS V14.01,2013-03-23 04:01:00,
2013-03-23 00:06:00,62.6,61.2,30.00,East,93,0.0,0.0,95,0.00,,OVC080,0.00,VWS V14.01,2013-03-23 04:06:00,
2013-03-23 00:11:00,62.6,61.2,30.01,East,93,2.0,2.0,95,0.00,,OVC080,0.00,VWS V14.01,2013-03-23 04:11:00,
2013-03-23 00:16:00,62.6,61.2,30.00,East,93,0.0,2.0,95,0.00,,OVC080,0.00,VWS V14.01,2013-03-23 04:16:00,
2013-03-23 00:21:00,62.6,61.2,30.00,East,93,0.0,2.0,95,0.00,,OVC080,0.00,VWS V14.01,2013-03-23 04:21:00,
2013-03-23 00:26:00,62.5,61.0,30.00,East,93,0.0,4.0,95,0.00,,OVC080,0.00,VWS V14.01,2013-03-23 04:26:00,
2013-03-23 00:31:00,62.5,61.3,30.00,East,93,2.0,2.0,96,0.00,,OVC080,0.00,VWS V14.01,2013-03-23 04:31:00,
2013-03-23 00:36:00,62.7,61.5,30.00,East,94,0.0,0.0,96,0.00,,OVC080,0.00,VWS V14.01,2013-03-23 04:36:00,
2013-03-23 00:41:00,62.7,61.2,29.99,ESE,117,0.0,4.0,95,0.00,,OVC080,0.00,VWS V14.01,2013-03-23 04:41:00,
2013-03-23 00:47:00,62.7,61.2,29.99,ESE,103,4.0,4.0,95,0.00,,OVC080,0.00,VWS V14.01,2013-03-23 04:47:00,
2013-03-23 00:52:00,62.7,61.2,29.99,ESE,104,2.0,4.0,95,0.00,,OVC080,0.00,VWS V14.01,2013-03-23 04:52:00,
2013-03-23 00:57:00,62.8,61.7,29.99,ESE,105,2.0,2.0,96,0.00,,OVC080,0.00,VWS V14.01,2013-03-23 04:57:00,
2013-03-23 01:02:00,62.8,61.7,29.99,ESE,105,2.0,2.0,96,0.00,,OVC085,0.00,VWS V14.01,2013-03-23 05:02:00,
2013-03-23 01:07:00,62.8,61.7,29.99,ESE,105,0.0,2.0,96,0.00,,OVC085,0.00,VWS V14.01,2013-03-23 05:07:00,
2013-03-23 01:12:00,62.8,61.7,29.98,ESE,112,0.0,2.0,96,0.00,,OVC085,0.00,VWS V14.01,2013-03-23 05:12:00,
2013-03-23 01:17:00,63.0,61.8,29.98,ESE,116,2.0,6.0,96,0.00,,OVC085,0.00,VWS V14.01,2013-03-23 05:17:00,
2013-03-23 01:22:00,63.1,61.9,29.97,SE,132,2.0,6.0,96,0.00,,OVC085,0.00,VWS V14.01,2013-03-23 05:22:00,
2013-03-23 01:27:00,63.0,61.8,29.97,East,81,0.0,2.0,96,0.00,,OVC085,0.00,VWS V14.01,2013-03-23 05:27:00,
2013-03-23 01:32:00,63.0,61.8,29.98,East,91,0.0,6.0,96,0.00,,OVC085,0.00,VWS V14.01,2013-03-23 05:32:00,
2013-03-23 01:38:00,63.0,61.8,29.98,East,91,0.0,0.0,96,0.00,,OVC085,0.00,VWS V14.01,2013-03-23 05:38:00,
2013-03-23 01:43:00,63.0,61.8,29.98,East,91,0.0,0.0,96,0.00,,OVC085,0.00,VWS V14.01,2013-03-23 05:43:00,
2013-03-23 01:48:00,63.0,61.8,29.98,East,91,0.0,0.0,96,0.00,,OVC085,0.00,VWS V14.01,2013-03-23 05:48:00,
2013-03-23 01:53:00,63.0,61.8,29.98,East,91,0.0,2.0,96,0.00,,OVC085,0.00,VWS V14.01,2013-03-23 05:53:00,
2013-03-23 01:58:00,63.1,61.9,29.98,East,91,0.0,0.0,96,0.00,,OVC085,0.00,VWS V14.01,2013-03-23 05:58:00,
2013-03-23 02:03:00,63.1,61.9,29.97,East,91,0.0,0.0,96,0.00,,BKN110,0.00,VWS V14.01,2013-03-23 06:03:00,
2013-03-23 02:08:00,63.1,61.9,29.97,East,91,0.0,0.0,96,0.00,,BKN110,0.00,VWS V14.01,2013-03-23 06:08:00,
2013-03-23 02:13:00,63.1,61.9,29.97,East,91,0.0,0.0,96,0.00,,BKN110,0.00,VWS V14.01,2013-03-23 06:13:00,
2013-03-23 02:18:00,63.1,61.7,29.97,East,91,0.0,2.0,95,0.00,,BKN110,0.00,VWS V14.01,2013-03-23 06:18:00,
2013-03-23 02:23:00,63.0,61.5,29.96,East,91,0.0,2.0,95,0.00,,BKN110,0.00,VWS V14.01,2013-03-23 06:23:00,
2013-03-23 02:28:00,63.0,61.5,29.97,East,91,0.0,0.0,95,0.00,,BKN110,0.00,VWS V14.01,2013-03-23 06:28:00,
2013-03-23 02:33:00,63.0,61.8,29.96,East,91,0.0,0.0,96,0.00,,BKN110,0.00,VWS V14.01,2013-03-23 06:33:00,
2013-03-23 02:38:00,62.9,61.5,29.96,East,91,0.0,2.0,95,0.00,,BKN110,0.00,VWS V14.01,2013-03-23 06:38:00,
2013-03-23 02:43:00,62.9,61.5,29.96,East,91,0.0,0.0,95,0.00,,BKN110,0.00,VWS V14.01,2013-03-23 06:43:00,
2013-03-23 02:48:00,62.9,61.8,29.96,East,91,0.0,0.0,96,0.00,,BKN110,0.00,VWS V14.01,2013-03-23 06:48:00,
2013-03-23 02:53:00,62.9,61.8,29.96,East,91,0.0,0.0,96,0.00,,BKN110,0.00,VWS V14.01,2013-03-23 06:53:00,
2013-03-23 02:59:00,62.9,61.8,29.96,East,91,0.0,0.0,96,0.00,,BKN110,0.00,VWS V14.01,2013-03-23 06:59:00,
2013-03-23 03:04:00,62.9,61.8,29.95,East,91,0.0,2.0,96,0.00,,BKN080,0.00,VWS V14.01,2013-03-23 07:04:00,
2013-03-23 03:09:00,62.9,61.8,29.95,East,91,0.0,2.0,96,0.00,,BKN080,0.00,VWS V14.01,2013-03-23 07:09:00,
2013-03-23 03:14:00,62.9,61.8,29.95,East,91,0.0,0.0,96,0.00,,BKN080,0.00,VWS V14.01,2013-03-23 07:14:00,
2013-03-23 03:19:00,62.8,61.7,29.95,East,91,0.0,0.0,96,0.00,,BKN080,0.00,VWS V14.01,2013-03-23 07:19:00,
2013-03-23 03:24:00,62.8,61.3,29.94,East,91,0.0,2.0,95,0.00,,BKN080,0.00,VWS V14.01,2013-03-23 07:24:00,
2013-03-23 03:29:00,62.7,61.2,29.94,East,91,0.0,2.0,95,0.00,,BKN080,0.00,VWS V14.01,2013-03-23 07:29:00,
2013-03-23 03:34:00,62.6,61.2,29.94,East,91,0.0,2.0,95,0.00,,BKN080,0.00,VWS V14.01,2013-03-23 07:34:00,
2013-03-23 03:39:00,62.5,61.3,29.94,East,91,0.0,0.0,96,0.00,,BKN080,0.00,VWS V14.01,2013-03-23 07:39:00,
2013-03-23 03:44:00,62.5,61.3,29.94,East,91,0.0,2.0,96,0.00,,BKN080,0.00,VWS V14.01,2013-03-23 07:44:00,
2013-03-23 03:49:00,62.5,61.3,29.94,East,91,0.0,0.0,96,0.00,,BKN080,0.00,VWS V14.01,2013-03-23 07:49:00,
2013-03-23 03:54:00,62.5,61.3,29.94,East,91,0.0,0.0,96,0.00,,BKN080,0.00,VWS V14.01,2013-03-23 07:54:00,
2013-03-23 03:59:00,62.4,61.2,29.93,East,91,0.0,0.0,96,0.00,,BKN080,0.00,VWS V14.01,2013-03-23 07:59:00,
2013-03-23 04:05:00,62.3,61.2,29.94,East,91,0.0,0.0,96,0.00,,SCT080,0.00,VWS V14.01,2013-03-23 08:05:00,
2013-03-23 04:10:00,62.3,61.2,29.93,East,91,0.0,0.0,96,0.00,,SCT080,0.00,VWS V14.01,2013-03-23 08:10:00,
2013-03-23 04:15:00,62.3,61.2,29.93,East,91,0.0,0.0,96,0.00,,SCT060,0.00,VWS V14.01,2013-03-23 08:15:00,
2013-03-23 04:20:00,62.2,61.0,29.93,East,91,0.0,0.0,96,0.00,,SCT060,0.00,VWS V14.01,2013-03-23 08:20:00,
2013-03-23 04:25:00,62.2,61.0,29.92,East,91,0.0,0.0,96,0.00,,SCT060,0.00,VWS V14.01,2013-03-23 08:25:00,
2013-03-23 04:30:00,62.1,61.0,29.92,East,91,0.0,0.0,96,0.00,,SCT060,0.00,VWS V14.01,2013-03-23 08:30:00,
2013-03-23 04:35:00,62.1,61.0,29.92,East,91,0.0,0.0,96,0.00,,SCT060,0.00,VWS V14.01,2013-03-23 08:35:00,
2013-03-23 04:40:00,62.0,60.8,29.92,East,91,0.0,0.0,96,0.00,,SCT060,0.00,VWS V14.01,2013-03-23 08:40:00,
2013-03-23 04:45:00,62.0,61.1,29.92,East,91,0.0,0.0,97,0.00,,SCT060,0.00,VWS V14.01,2013-03-23 08:45:00,
2013-03-23 04:50:00,62.0,61.1,29.92,East,91,0.0,0.0,97,0.00,,SCT060,0.00,VWS V14.01,2013-03-23 08:50:00,
2013-03-23 04:55:00,62.0,61.1,29.91,East,91,0.0,0.0,97,0.00,,SCT060,0.00,VWS V14.01,2013-03-23 08:55:00,
2013-03-23 05:00:00,62.0,61.1,29.91,East,91,0.0,0.0,97,0.00,,BKN085,0.00,VWS V14.01,2013-03-23 09:00:00,
2013-03-23 05:05:00,62.1,61.2,29.91,East,91,0.0,0.0,97,0.00,,BKN085,0.00,VWS V14.01,2013-03-23 09:05:00,
2013-03-23 05:11:00,62.3,61.4,29.91,East,91,2.0,2.0,97,0.00,,BKN085,0.00,VWS V14.01,2013-03-23 09:11:00,
2013-03-23 05:16:00,62.4,61.5,29.91,East,91,0.0,0.0,97,0.00,,BKN085,0.00,VWS V14.01,2013-03-23 09:16:00,
2013-03-23 05:21:00,62.6,61.7,29.91,East,91,0.0,4.0,97,0.00,,BKN085,0.00,VWS V14.01,2013-03-23 09:21:00,
2013-03-23 05:26:00,62.7,61.8,29.91,ESE,108,0.0,2.0,97,0.00,,BKN085,0.00,VWS V14.01,2013-03-23 09:26:00,
2013-03-23 05:31:00,62.7,61.8,29.91,ESE,108,0.0,0.0,97,0.00,,BKN085,0.00,VWS V14.01,2013-03-23 09:31:00,
2013-03-23 05:36:00,62.8,61.9,29.92,ESE,108,0.0,0.0,97,0.00,,BKN085,0.00,VWS V14.01,2013-03-23 09:36:00,
2013-03-23 05:42:00,62.9,62.0,29.92,ESE,108,4.0,4.0,97,0.00,,BKN085,0.00,VWS V14.01,2013-03-23 09:42:00,
2013-03-23 05:47:00,63.0,62.1,29.92,ESE,108,0.0,2.0,97,0.00,,BKN085,0.00,VWS V14.01,2013-03-23 09:47:00,
2013-03-23 05:52:00,63.2,62.3,29.92,ESE,108,2.0,2.0,97,0.00,,BKN085,0.00,VWS V14.01,2013-03-23 09:52:00,
2013-03-23 05:57:00,63.2,62.3,29.92,ESE,108,0.0,0.0,97,0.00,,BKN085,0.00,VWS V14.01,2013-03-23 09:57:00,
2013-03-23 06:02:00,63.2,62.3,29.92,ESE,108,0.0,0.0,97,0.00,,BKN090,0.00,VWS V14.01,2013-03-23 10:02:00,
2013-03-23 06:07:00,63.2,62.3,29.92,ESE,108,0.0,0.0,97,0.00,,BKN090,0.00,VWS V14.01,2013-03-23 10:07:00,
2013-03-23 06:12:00,63.2,62.3,29.92,ESE,108,0.0,0.0,97,0.00,,BKN090,0.00,VWS V14.01,2013-03-23 10:12:00,
2013-03-23 06:17:00,63.2,62.3,29.92,ESE,108,2.0,2.0,97,0.00,,BKN090,0.00,VWS V14.01,2013-03-23 10:17:00,
2013-03-23 06:22:00,63.2,62.3,29.92,ESE,110,0.0,2.0,97,0.00,,BKN090,0.00,VWS V14.01,2013-03-23 10:22:00,
2013-03-23 06:27:00,63.2,62.3,29.92,ESE,110,0.0,0.0,97,0.00,,BKN090,0.00,VWS V14.01,2013-03-23 10:27:00,
2013-03-23 06:32:00,63.2,62.3,29.93,ESE,110,0.0,2.0,97,0.00,,OVC090,0.00,VWS V14.01,2013-03-23 10:32:00,
2013-03-23 06:37:00,63.2,62.3,29.93,ESE,110,0.0,0.0,97,0.00,,OVC090,0.00,VWS V14.01,2013-03-23 10:37:00,
2013-03-23 06:42:00,63.3,62.4,29.93,ESE,109,2.0,4.0,97,0.00,,OVC090,0.00,VWS V14.01,2013-03-23 10:42:00,
2013-03-23 06:48:00,63.3,62.4,29.93,ESE,109,0.0,2.0,97,0.00,,OVC090,0.00,VWS V14.01,2013-03-23 10:48:00,
2013-03-23 06:53:00,63.4,62.5,29.93,ESE,109,4.0,4.0,97,0.00,,OVC090,0.00,VWS V14.01,2013-03-23 10:53:00,
2013-03-23 06:58:00,63.4,62.5,29.93,ESE,109,2.0,4.0,97,0.00,,OVC090,0.00,VWS V14.01,2013-03-23 10:58:00,
2013-03-23 07:03:00,63.5,62.6,29.93,ESE,111,0.0,4.0,97,0.00,,OVC045,0.00,VWS V14.01,2013-03-23 11:03:00,
2013-03-23 07:08:00,63.5,62.6,29.93,ESE,111,0.0,2.0,97,0.00,,OVC045,0.00,VWS V14.01,2013-03-23 11:08:00,
2013-03-23 07:13:00,63.6,63.0,29.94,ESE,111,0.0,2.0,98,0.00,,OVC045,0.00,VWS V14.01,2013-03-23 11:13:00,
2013-03-23 07:18:00,63.7,62.8,29.93,ESE,111,0.0,4.0,97,0.01,,OVC045,0.01,VWS V14.01,2013-03-23 11:18:00,
2013-03-23 07:23:00,63.7,62.8,29.94,ESE,111,0.0,0.0,97,0.02,,OVC045,0.02,VWS V14.01,2013-03-23 11:23:00,
2013-03-23 07:28:00,63.8,62.9,29.94,ESE,111,0.0,0.0,97,0.04,,OVC045,0.04,VWS V14.01,2013-03-23 11:28:00,
2013-03-23 07:33:00,63.8,62.9,29.94,ESE,111,0.0,0.0,97,0.05,,,0.05,VWS V14.01,2013-03-23 11:33:00,
2013-03-23 07:38:00,63.8,62.9,29.95,ESE,111,0.0,0.0,97,0.05,,,0.05,VWS V14.01,2013-03-23 11:38:00,
2013-03-23 07:43:00,63.9,63.3,29.95,ESE,111,0.0,0.0,98,0.05,,,0.05,VWS V14.01,2013-03-23 11:43:00,
2013-03-23 07:48:00,63.9,63.3,29.94,ESE,111,0.0,0.0,98,0.05,,,0.05,VWS V14.01,2013-03-23 11:48:00,
2013-03-23 07:53:00,64.0,63.4,29.94,ESE,111,0.0,0.0,98,0.05,,,0.05,VWS V14.01,2013-03-23 11:53:00,
2013-03-23 07:58:00,64.0,63.4,29.94,ESE,111,0.0,0.0,98,0.05,,,0.05,VWS V14.01,2013-03-23 11:58:00,
2013-03-23 08:04:00,64.0,63.4,29.94,ESE,111,0.0,0.0,98,0.05,,,0.05,VWS V14.01,2013-03-23 12:04:00,
2013-03-23 08:09:00,64.1,63.5,29.94,ESE,111,0.0,0.0,98,0.05,,,0.05,VWS V14.01,2013-03-23 12:09:00,
2013-03-23 08:14:00,64.2,63.6,29.95,ESE,111,0.0,0.0,98,0.05,,,0.05,VWS V14.01,2013-03-23 12:14:00,
2013-03-23 08:19:00,64.3,63.7,29.95,ESE,111,0.0,0.0,98,0.05,,,0.05,VWS V14.01,2013-03-23 12:19:00,
2013-03-23 08:24:00,64.5,63.9,29.95,ESE,111,0.0,0.0,98,0.04,,,0.05,VWS V14.01,2013-03-23 12:24:00,
2013-03-23 08:29:00,64.6,64.0,29.95,ESE,111,0.0,0.0,98,0.02,,,0.05,VWS V14.01,2013-03-23 12:29:00,
2013-03-23 08:34:00,64.8,64.2,29.94,ESE,111,0.0,0.0,98,0.01,,,0.05,VWS V14.01,2013-03-23 12:34:00,
2013-03-23 08:39:00,64.9,64.3,29.94,ESE,111,0.0,0.0,98,0.00,,,0.05,VWS V14.01,2013-03-23 12:39:00,
2013-03-23 08:44:00,65.1,64.5,29.94,ESE,111,0.0,0.0,98,0.00,,,0.05,VWS V14.01,2013-03-23 12:44:00,
2013-03-23 08:49:00,65.6,65.3,29.94,ESE,111,0.0,2.0,99,0.00,,,0.05,VWS V14.01,2013-03-23 12:49:00,
2013-03-23 08:55:00,65.8,65.5,29.94,ESE,111,0.0,0.0,99,0.00,,,0.05,VWS V14.01,2013-03-23 12:55:00,
2013-03-23 09:00:00,66.2,65.9,29.94,ESE,111,0.0,0.0,99,0.00,,,0.05,VWS V14.01,2013-03-23 13:00:00,
2013-03-23 09:05:00,66.4,66.1,29.94,ESE,111,0.0,2.0,99,0.00,,,0.05,VWS V14.01,2013-03-23 13:05:00,
2013-03-23 09:10:00,66.7,66.4,29.94,ESE,102,0.0,2.0,99,0.00,,,0.05,VWS V14.01,2013-03-23 13:10:00,
2013-03-23 09:15:00,66.8,66.5,29.94,East,98,0.0,0.0,99,0.00,,,0.05,VWS V14.01,2013-03-23 13:15:00,
2013-03-23 09:20:00,67.1,66.8,29.94,East,99,0.0,0.0,99,0.00,,,0.05,VWS V14.01,2013-03-23 13:20:00,
2013-03-23 09:25:00,67.3,67.0,29.94,ESE,109,0.0,4.0,99,0.00,,,0.05,VWS V14.01,2013-03-23 13:25:00,
2013-03-23 09:30:00,67.6,67.3,29.94,ESE,109,0.0,0.0,99,0.00,,,0.05,VWS V14.01,2013-03-23 13:30:00,
2013-03-23 09:35:00,68.1,67.8,29.94,ESE,111,0.0,0.0,99,0.00,,,0.05,VWS V14.01,2013-03-23 13:35:00,
2013-03-23 09:40:00,68.4,68.1,29.93,ESE,110,0.0,2.0,99,0.00,,,0.05,VWS V14.01,2013-03-23 13:40:00,
2013-03-23 09:45:00,68.7,68.4,29.93,ESE,110,0.0,2.0,99,0.00,,,0.05,VWS V14.01,2013-03-23 13:45:00,
2013-03-23 09:51:00,69.1,68.5,29.93,East,93,0.0,2.0,98,0.00,,,0.05,VWS V14.01,2013-03-23 13:51:00,
2013-03-23 09:56:00,69.7,69.1,29.93,East,97,2.0,4.0,98,0.00,,,0.05,VWS V14.01,2013-03-23 13:56:00,
2013-03-23 10:01:00,70.2,69.3,29.93,SE,128,2.0,4.0,97,0.00,,,0.05,VWS V14.01,2013-03-23 14:01:00,
2013-03-23 10:06:00,70.7,69.2,29.92,SW,215,4.0,6.0,95,0.00,,,0.05,VWS V14.01,2013-03-23 14:06:00,
2013-03-23 10:11:00,71.2,69.4,29.92,SSE,149,2.0,6.0,94,0.00,,,0.05,VWS V14.01,2013-03-23 14:11:00,
2013-03-23 10:16:00,71.5,69.4,29.93,East,88,0.0,4.0,93,0.00,,,0.05,VWS V14.01,2013-03-23 14:16:00,
2013-03-23 10:21:00,71.9,69.8,29.92,South,170,2.0,4.0,93,0.00,,,0.05,VWS V14.01,2013-03-23 14:21:00,
2013-03-23 10:26:00,72.4,69.9,29.92,SE,132,4.0,6.0,92,0.00,,,0.05,VWS V14.01,2013-03-23 14:26:00,
2013-03-23 10:32:00,73.0,70.5,29.92,East,91,6.0,6.0,92,0.00,,,0.05,VWS V14.01,2013-03-23 14:32:00,
2013-03-23 10:37:00,73.7,70.6,29.91,SSE,157,4.0,6.0,90,0.00,,,0.05,VWS V14.01,2013-03-23 14:37:00,
2013-03-23 10:42:00,74.2,70.8,29.92,ESE,114,4.0,12.0,89,0.00,,,0.05,VWS V14.01,2013-03-23 14:42:00,
2013-03-23 10:47:00,74.5,71.1,29.92,SE,145,6.0,10.0,89,0.00,,,0.05,VWS V14.01,2013-03-23 14:47:00,
2013-03-23 10:52:00,74.8,71.0,29.92,East,94,0.0,12.0,88,0.00,,,0.05,VWS V14.01,2013-03-23 14:52:00,
2013-03-23 10:57:00,75.3,70.8,29.92,SE,131,6.0,6.0,86,0.00,,,0.05,VWS V14.01,2013-03-23 14:57:00,
2013-03-23 11:02:00,75.7,70.9,29.91,SE,124,2.0,6.0,85,0.00,,FEW006,0.05,VWS V14.01,2013-03-23 15:02:00,
2013-03-23 11:07:00,76.4,71.6,29.91,SSE,156,4.0,8.0,85,0.00,,FEW006,0.05,VWS V14.01,2013-03-23 15:07:00,
2013-03-23 11:12:00,77.0,71.4,29.91,SE,143,6.0,10.0,83,0.00,,FEW006,0.05,VWS V14.01,2013-03-23 15:12:00,
2013-03-23 11:17:00,77.3,71.7,29.91,SSE,161,2.0,8.0,83,0.00,,FEW006,0.05,VWS V14.01,2013-03-23 15:17:00,
2013-03-23 11:22:00,77.8,71.5,29.91,SSW,209,4.0,10.0,81,0.00,,FEW006,0.05,VWS V14.01,2013-03-23 15:22:00,
2013-03-23 11:28:00,78.1,71.4,29.90,ESE,116,2.0,8.0,80,0.00,,FEW006,0.05,VWS V14.01,2013-03-23 15:28:00,
2013-03-23 11:33:00,78.6,72.3,29.90,SSW,207,4.0,6.0,81,0.00,,FEW006,0.05,VWS V14.01,2013-03-23 15:33:00,
2013-03-23 11:38:00,79.6,72.5,29.90,SSE,163,0.0,4.0,79,0.00,,FEW006,0.05,VWS V14.01,2013-03-23 15:38:00,
2013-03-23 11:43:00,80.7,72.8,29.90,SW,222,8.0,14.0,77,0.00,,FEW006,0.05,VWS V14.01,2013-03-23 15:43:00,
2013-03-23 11:48:00,80.9,72.2,29.90,SSE,152,4.0,10.0,75,0.00,,FEW006,0.05,VWS V14.01,2013-03-23 15:48:00,
2013-03-23 11:53:00,80.9,72.2,29.90,SE,135,4.0,14.0,75,0.00,,FEW006,0.05,VWS V14.01,2013-03-23 15:53:00,
2013-03-23 11:58:00,81.0,72.3,29.90,NNE,32,4.0,6.0,75,0.00,,FEW006,0.05,VWS V14.01,2013-03-23 15:58:00,
2013-03-23 12:03:00,81.2,71.7,29.90,SSW,209,0.0,14.0,73,0.00,,SCT170,0.05,VWS V14.01,2013-03-23 16:03:00,
2013-03-23 12:08:00,81.0,71.9,29.89,SW,222,0.0,12.0,74,0.00,,SCT170,0.05,VWS V14.01,2013-03-23 16:08:00,
2013-03-23 12:13:00,81.0,71.9,29.90,South,186,6.0,16.0,74,0.00,,SCT170,0.05,VWS V14.01,2013-03-23 16:13:00,
2013-03-23 12:18:00,81.1,72.0,29.90,SSE,159,2.0,6.0,74,0.00,,SCT170,0.05,VWS V14.01,2013-03-23 16:18:00,
2013-03-23 12:23:00,81.2,71.7,29.90,SSW,209,8.0,14.0,73,0.00,,SCT170,0.05,VWS V14.01,2013-03-23 16:23:00,
2013-03-23 12:28:00,81.5,72.0,29.89,SSE,149,2.0,10.0,73,0.00,,SCT170,0.05,VWS V14.01,2013-03-23 16:28:00,
2013-03-23 12:33:00,81.6,72.1,29.89,SSW,205,4.0,12.0,73,0.00,,SCT170,0.05,VWS V14.01,2013-03-23 16:33:00,
2013-03-23 12:39:00,81.8,72.3,29.89,South,184,4.0,6.0,73,0.00,,SCT170,0.05,VWS V14.01,2013-03-23 16:39:00,
2013-03-23 12:44:00,81.7,72.2,29.89,SSW,207,0.0,8.0,73,0.00,,SCT170,0.05,VWS V14.01,2013-03-23 16:44:00,
2013-03-23 12:49:00,81.4,71.9,29.89,South,187,0.0,8.0,73,0.00,,SCT170,0.05,VWS V14.01,2013-03-23 16:49:00,
2013-03-23 12:54:00,81.2,72.5,29.88,SW,230,2.0,6.0,75,0.00,,SCT170,0.05,VWS V14.01,2013-03-23 16:54:00,
2013-03-23 12:59:00,81.3,72.2,29.88,SSE,154,2.0,6.0,74,0.00,,SCT170,0.05,VWS V14.01,2013-03-23 16:59:00,
2013-03-23 13:04:00,81.8,72.3,29.88,SW,223,4.0,10.0,73,0.00,,BKN250,0.05,VWS V14.01,2013-03-23 17:04:00,
2013-03-23 13:09:00,82.1,72.2,29.88,SE,137,8.0,10.0,72,0.00,,BKN250,0.05,VWS V14.01,2013-03-23 17:09:00,
2013-03-23 13:14:00,82.8,71.6,29.88,SW,230,4.0,12.0,69,0.00,,BKN250,0.05,VWS V14.01,2013-03-23 17:14:00,
2013-03-23 13:19:00,83.0,71.8,29.87,SSE,157,6.0,12.0,69,0.00,,BKN250,0.05,VWS V14.01,2013-03-23 17:19:00,
2013-03-23 13:24:00,83.0,72.2,29.87,SSW,206,8.0,8.0,70,0.00,,BKN250,0.05,VWS V14.01,2013-03-23 17:24:00,
2013-03-23 13:29:00,83.1,72.3,29.87,WNW,282,12.0,12.0,70,0.00,,BKN250,0.05,VWS V14.01,2013-03-23 17:29:00,
2013-03-23 13:34:00,83.1,71.9,29.87,SW,219,0.0,14.0,69,0.00,,BKN250,0.05,VWS V14.01,2013-03-23 17:34:00,
2013-03-23 13:39:00,83.5,71.8,29.86,SW,222,4.0,12.0,68,0.00,,BKN250,0.05,VWS V14.01,2013-03-23 17:39:00,
2013-03-23 13:44:00,84.0,71.4,29.86,SW,233,4.0,12.0,66,0.00,,BKN250,0.05,VWS V14.01,2013-03-23 17:44:00,
2013-03-23 13:50:00,84.3,72.2,29.86,North,3,2.0,12.0,67,0.00,,BKN250,0.05,VWS V14.01,2013-03-23 17:50:00,
2013-03-23 13:55:00,84.9,71.4,29.86,SSW,205,4.0,4.0,64,0.00,,BKN250,0.05,VWS V14.01,2013-03-23 17:55:00,
2013-03-23 14:00:00,85.4,70.9,29.85,SW,217,8.0,8.0,62,0.00,,BKN250,0.05,VWS V14.01,2013-03-23 18:00:00,
2013-03-23 14:05:00,85.6,70.6,29.85,SE,134,6.0,6.0,61,0.00,,BKN049,0.05,VWS V14.01,2013-03-23 18:05:00,
2013-03-23 14:10:00,85.7,71.2,29.85,SSE,149,0.0,4.0,62,0.00,,BKN049,0.05,VWS V14.01,2013-03-23 18:10:00,
2013-03-23 14:15:00,86.2,71.2,29.84,South,176,6.0,8.0,61,0.00,,BKN049,0.05,VWS V14.01,2013-03-23 18:15:00,
2013-03-23 14:20:00,86.0,71.5,29.84,SSE,155,2.0,4.0,62,0.00,,BKN049,0.05,VWS V14.01,2013-03-23 18:20:00,
2013-03-23 14:25:00,86.2,71.7,29.84,SSW,208,2.0,10.0,62,0.00,,BKN049,0.05,VWS V14.01,2013-03-23 18:25:00,
2013-03-23 14:30:00,86.5,70.5,29.84,WSW,245,12.0,12.0,59,0.00,,BKN049,0.05,VWS V14.01,2013-03-23 18:30:00,
2013-03-23 14:36:00,86.3,69.8,29.84,SSW,213,4.0,10.0,58,0.00,,BKN049,0.05,VWS V14.01,2013-03-23 18:36:00,
2013-03-23 14:41:00,86.7,70.2,29.83,SSE,156,6.0,14.0,58,0.00,,BKN049,0.05,VWS V14.01,2013-03-23 18:41:00,
2013-03-23 14:46:00,87.3,70.2,29.83,South,175,4.0,10.0,57,0.00,,BKN049,0.05,VWS V14.01,2013-03-23 18:46:00,
2013-03-23 14:51:00,87.3,69.7,29.82,SE,136,14.0,14.0,56,0.00,,BKN049,0.05,VWS V14.01,2013-03-23 18:51:00,
2013-03-23 14:57:00,86.6,70.1,29.82,West,271,6.0,18.0,58,0.00,,BKN049,0.05,VWS V14.01,2013-03-23 18:57:00,
2013-03-23 15:02:00,86.9,70.4,29.81,WSW,242,6.0,6.0,58,0.00,,BKN090,0.05,VWS V14.01,2013-03-23 19:02:00,
2013-03-23 15:07:00,87.7,70.1,29.80,NNW,340,2.0,22.0,56,0.00,,BKN090,0.05,VWS V14.01,2013-03-23 19:07:00,
2013-03-23 15:12:00,87.4,70.3,29.80,SSW,192,2.0,18.0,57,0.00,,BKN090,0.05,VWS V14.01,2013-03-23 19:12:00,
2013-03-23 15:17:00,86.6,70.1,29.80,SSW,213,4.0,16.0,58,0.00,,BKN090,0.05,VWS V14.01,2013-03-23 19:17:00,
2013-03-23 15:22:00,85.9,70.9,29.80,SW,226,6.0,16.0,61,0.00,,BKN090,0.05,VWS V14.01,2013-03-23 19:22:00,
2013-03-23 15:27:00,83.8,72.1,29.81,West,281,8.0,10.0,68,0.01,,BKN090,0.06,VWS V14.01,2013-03-23 19:27:00,
2013-03-23 15:33:00,82.4,72.1,29.80,West,261,4.0,10.0,71,0.01,,BKN090,0.06,VWS V14.01,2013-03-23 19:33:00,
2013-03-23 15:38:00,81.6,72.1,29.81,WNW,286,4.0,8.0,73,0.01,,BKN090,0.06,VWS V14.01,2013-03-23 19:38:00,
2013-03-23 15:43:00,81.7,72.2,29.81,WNW,302,10.0,16.0,73,0.01,,BKN090,0.06,VWS V14.01,2013-03-23 19:43:00,
2013-03-23 15:48:00,81.6,71.7,29.80,West,280,2.0,12.0,72,0.01,,BKN090,0.06,VWS V14.01,2013-03-23 19:48:00,
2013-03-23 15:53:00,81.6,71.7,29.79,NW,309,2.0,10.0,72,0.01,,BKN090,0.06,VWS V14.01,2013-03-23 19:53:00,
2013-03-23 15:58:00,82.2,72.3,29.79,West,278,6.0,6.0,72,0.01,,BKN090,0.06,VWS V14.01,2013-03-23 19:58:00,
2013-03-23 16:03:00,83.0,71.8,29.79,SW,232,4.0,16.0,69,0.01,,-RA,0.06,VWS V14.01,2013-03-23 20:03:00,
2013-03-23 16:08:00,83.5,72.3,29.79,West,261,10.0,12.0,69,0.01,,-RA,0.06,VWS V14.01,2013-03-23 20:08:00,
2013-03-23 16:13:00,84.0,72.3,29.78,West,281,2.0,10.0,68,0.01,,-RA,0.06,VWS V14.01,2013-03-23 20:13:00,
2013-03-23 16:19:00,84.8,72.6,29.78,SSW,208,10.0,12.0,67,0.01,,-RA,0.06,VWS V14.01,2013-03-23 20:19:00,
2013-03-23 16:24:00,85.4,72.3,29.77,SW,224,2.0,12.0,65,0.01,,-RA,0.06,VWS V14.01,2013-03-23 20:24:00,
2013-03-23 16:29:00,86.0,71.5,29.78,ESE,115,10.0,10.0,62,0.00,,-RA,0.06,VWS V14.01,2013-03-23 20:29:00,
2013-03-23 16:34:00,86.0,71.0,29.77,SW,229,8.0,12.0,61,0.00,,-RA,0.06,VWS V14.01,2013-03-23 20:34:00,
2013-03-23 16:39:00,86.2,71.2,29.77,WSW,242,6.0,6.0,61,0.00,,-RA,0.06,VWS V14.01,2013-03-23 20:39:00,
2013-03-23 16:44:00,86.3,70.8,29.77,SSE,164,8.0,18.0,60,0.00,,-RA,0.06,VWS V14.01,2013-03-23 20:44:00,
2013-03-23 16:49:00,86.1,69.6,29.77,NW,309,6.0,16.0,58,0.00,,-RA,0.06,VWS V14.01,2013-03-23 20:49:00,
2013-03-23 16:54:00,86.1,69.6,29.77,WSW,250,10.0,14.0,58,0.00,,-RA,0.06,VWS V14.01,2013-03-23 20:54:00,
2013-03-23 16:59:00,86.0,70.0,29.77,WSW,250,0.0,12.0,59,0.00,,-RA,0.06,VWS V14.01,2013-03-23 20:59:00,
2013-03-23 17:04:00,85.8,69.3,29.77,WNW,286,4.0,14.0,58,0.00,,-RA,0.06,VWS V14.01,2013-03-23 21:04:00,
2013-03-23 17:09:00,85.5,69.6,29.77,West,274,6.0,14.0,59,0.00,,-RA,0.06,VWS V14.01,2013-03-23 21:09:00,
2013-03-23 17:14:00,85.0,69.6,29.77,West,260,4.0,12.0,60,0.00,,-RA,0.06,VWS V14.01,2013-03-23 21:14:00,
2013-03-23 17:19:00,84.9,69.5,29.77,North,350,2.0,12.0,60,0.00,,BKN200,0.06,VWS V14.01,2013-03-23 21:19:00,
2013-03-23 17:24:00,85.0,69.1,29.77,WNW,299,2.0,12.0,59,0.00,,BKN200,0.06,VWS V14.01,2013-03-23 21:24:00,
2013-03-23 17:30:00,85.1,69.2,29.78,WNW,287,2.0,8.0,59,0.00,,BKN200,0.06,VWS V14.01,2013-03-23 21:30:00,
2013-03-23 17:35:00,85.3,67.8,29.78,SSW,207,4.0,4.0,56,0.00,,BKN200,0.06,VWS V14.01,2013-03-23 21:35:00,
2013-03-23 17:40:00,85.4,67.9,29.78,WSW,238,6.0,10.0,56,0.00,,BKN200,0.06,VWS V14.01,2013-03-23 21:40:00,
2013-03-23 17:45:00,85.5,67.0,29.78,WSW,256,8.0,8.0,54,0.00,,BKN200,0.06,VWS V14.01,2013-03-23 21:45:00,
2013-03-23 17:50:00,85.4,66.9,29.78,SSW,211,10.0,10.0,54,0.00,,BKN200,0.06,VWS V14.01,2013-03-23 21:50:00,
2013-03-23 17:55:00,85.3,66.2,29.78,SW,233,4.0,6.0,53,0.00,,BKN200,0.06,VWS V14.01,2013-03-23 21:55:00,
2013-03-23 18:00:00,85.1,66.1,29.79,South,182,10.0,12.0,53,0.00,,BKN200,0.06,VWS V14.01,2013-03-23 22:00:00,
2013-03-23 18:05:00,84.7,66.2,29.78,SSW,207,4.0,12.0,54,0.00,,BKN250,0.06,VWS V14.01,2013-03-23 22:05:00,
2013-03-23 18:10:00,84.4,66.5,29.78,WSW,249,0.0,4.0,55,0.00,,BKN250,0.06,VWS V14.01,2013-03-23 22:10:00,
2013-03-23 18:15:00,84.4,66.5,29.79,NW,305,2.0,14.0,55,0.00,,BKN250,0.06,VWS V14.01,2013-03-23 22:15:00,
2013-03-23 18:20:00,84.3,66.9,29.79,SW,227,10.0,10.0,56,0.00,,BKN250,0.06,VWS V14.01,2013-03-23 22:20:00,
2013-03-23 18:25:00,84.1,66.7,29.79,NW,306,2.0,4.0,56,0.00,,BKN250,0.06,VWS V14.01,2013-03-23 22:25:00,
2013-03-23 18:30:00,84.1,66.7,29.80,NNW,330,10.0,10.0,56,0.00,,BKN250,0.06,VWS V14.01,2013-03-23 22:30:00,
2013-03-23 18:35:00,83.8,66.4,29.80,South,180,4.0,8.0,56,0.00,,BKN250,0.06,VWS V14.01,2013-03-23 22:35:00,
2013-03-23 18:41:00,83.6,66.3,29.80,SSW,196,14.0,14.0,56,0.00,,BKN250,0.06,VWS V14.01,2013-03-23 22:41:00,
2013-03-23 18:46:00,83.2,66.4,29.80,WNW,284,6.0,12.0,57,0.00,,BKN250,0.06,VWS V14.01,2013-03-23 22:46:00,
2013-03-23 18:51:00,82.9,66.1,29.81,SSW,196,4.0,12.0,57,0.00,,BKN250,0.06,VWS V14.01,2013-03-23 22:51:00,
2013-03-23 18:56:00,82.6,65.8,29.81,NW,311,8.0,10.0,57,0.00,,BKN250,0.06,VWS V14.01,2013-03-23 22:56:00,
2013-03-23 19:01:00,82.3,66.1,29.81,WSW,238,4.0,4.0,58,0.00,,BKN250,0.06,VWS V14.01,2013-03-23 23:01:00,
2013-03-23 19:06:00,82.1,66.4,29.81,SW,220,10.0,18.0,59,0.00,,BKN250,0.06,VWS V14.01,2013-03-23 23:06:00,
2013-03-23 19:11:00,82.0,66.3,29.81,SSW,201,0.0,10.0,59,0.00,,BKN250,0.06,VWS V14.01,2013-03-23 23:11:00,
2013-03-23 19:16:00,81.8,66.1,29.81,SW,218,2.0,12.0,59,0.00,,BKN250,0.06,VWS V14.01,2013-03-23 23:16:00,
2013-03-23 19:21:00,81.6,66.4,29.81,SSW,209,2.0,12.0,60,0.00,,BKN250,0.06,VWS V14.01,2013-03-23 23:21:00,
2013-03-23 19:27:00,81.4,66.7,29.81,SW,222,6.0,8.0,61,0.00,,BKN250,0.06,VWS V14.01,2013-03-23 23:27:00,
2013-03-23 19:32:00,81.2,66.5,29.82,WNW,282,2.0,10.0,61,0.00,,BKN250,0.06,VWS V14.01,2013-03-23 23:32:00,
2013-03-23 19:37:00,81.0,66.8,29.82,West,261,0.0,6.0,62,0.00,,BKN250,0.06,VWS V14.01,2013-03-23 23:37:00,
2013-03-23 19:42:00,80.7,66.5,29.82,NW,309,0.0,4.0,62,0.00,,BKN250,0.06,VWS V14.01,2013-03-23 23:42:00,
2013-03-23 19:47:00,80.4,66.7,29.82,NNW,338,2.0,6.0,63,0.00,,BKN250,0.06,VWS V14.01,2013-03-23 23:47:00,
2013-03-23 19:53:00,80.2,66.9,29.82,WSW,244,0.0,6.0,64,0.00,,BKN250,0.06,VWS V14.01,2013-03-23 23:53:00,
2013-03-23 19:58:00,80.0,66.7,29.83,West,262,0.0,4.0,64,0.00,,BKN250,0.06,VWS V14.01,2013-03-23 23:58:00,
2013-03-23 20:03:00,79.8,67.0,29.82,West,273,2.0,2.0,65,0.00,,BKN250,0.06,VWS V14.01,2013-03-24 00:03:00,
2013-03-23 20:08:00,79.6,67.2,29.83,West,273,0.0,0.0,66,0.00,,BKN250,0.06,VWS V14.01,2013-03-24 00:08:00,
2013-03-23 20:13:00,79.3,67.0,29.83,West,273,0.0,0.0,66,0.00,,BKN250,0.06,VWS V14.01,2013-03-24 00:13:00,
2013-03-23 20:18:00,79.0,67.1,29.83,West,273,0.0,0.0,67,0.00,,BKN250,0.06,VWS V14.01,2013-03-24 00:18:00,
2013-03-23 20:23:00,78.8,66.9,29.83,NW,306,0.0,4.0,67,0.00,,BKN250,0.06,VWS V14.01,2013-03-24 00:23:00,
2013-03-23 20:28:00,78.7,67.3,29.84,NW,306,0.0,2.0,68,0.00,,BKN250,0.06,VWS V14.01,2013-03-24 00:28:00,
2013-03-23 20:33:00,78.7,67.3,29.84,NW,304,4.0,4.0,68,0.00,,BKN250,0.06,VWS V14.01,2013-03-24 00:33:00,
2013-03-23 20:38:00,78.2,66.8,29.85,North,355,4.0,8.0,68,0.00,,BKN250,0.06,VWS V14.01,2013-03-24 00:38:00,
2013-03-23 20:43:00,77.3,66.3,29.85,North,355,0.0,4.0,69,0.00,,BKN250,0.06,VWS V14.01,2013-03-24 00:43:00,
2013-03-23 20:49:00,75.9,65.8,29.85,NNW,345,0.0,6.0,71,0.00,,BKN250,0.06,VWS V14.01,2013-03-24 00:49:00,
2013-03-23 20:54:00,74.9,65.7,29.86,North,5,0.0,6.0,73,0.00,,BKN250,0.06,VWS V14.01,2013-03-24 00:54:00,
2013-03-23 20:59:00,74.2,65.8,29.86,ENE,74,2.0,2.0,75,0.00,,BKN250,0.06,VWS V14.01,2013-03-24 00:59:00,
2013-03-23 21:04:00,73.4,65.4,29.86,ENE,74,0.0,2.0,76,0.00,,SCT250,0.06,VWS V14.01,2013-03-24 01:04:00,
2013-03-23 21:09:00,72.8,65.2,29.86,ENE,63,0.0,4.0,77,0.00,,SCT250,0.06,VWS V14.01,2013-03-24 01:09:00,
2013-03-23 21:14:00,72.5,65.3,29.86,ENE,63,0.0,4.0,78,0.00,,SCT250,0.06,VWS V14.01,2013-03-24 01:14:00,
2013-03-23 21:19:00,72.2,65.0,29.86,ENE,63,0.0,2.0,78,0.00,,SCT250,0.06,VWS V14.01,2013-03-24 01:19:00,
2013-03-23 21:24:00,72.0,65.1,29.87,ENE,63,0.0,2.0,79,0.00,,SCT250,0.06,VWS V14.01,2013-03-24 01:24:00,
2013-03-23 21:29:00,71.8,64.9,29.87,ENE,63,0.0,4.0,79,0.00,,SCT250,0.06,VWS V14.01,2013-03-24 01:29:00,
2013-03-23 21:34:00,71.6,65.1,29.87,NNE,18,0.0,6.0,80,0.00,,SCT250,0.06,VWS V14.01,2013-03-24 01:34:00,
2013-03-23 21:39:00,71.5,65.4,29.88,NE,55,0.0,2.0,81,0.00,,SCT250,0.06,VWS V14.01,2013-03-24 01:39:00,
2013-03-23 21:45:00,71.4,64.9,29.88,NW,319,0.0,4.0,80,0.00,,SCT250,0.06,VWS V14.01,2013-03-24 01:45:00,
2013-03-23 21:50:00,71.2,64.7,29.88,NW,319,0.0,0.0,80,0.00,,SCT250,0.06,VWS V14.01,2013-03-24 01:50:00,
2013-03-23 21:55:00,71.0,64.5,29.88,SE,125,6.0,6.0,80,0.00,,SCT250,0.06,VWS V14.01,2013-03-24 01:55:00,
2013-03-23 22:00:00,70.8,64.7,29.89,East,91,2.0,2.0,81,0.00,,SCT250,0.06,VWS V14.01,2013-03-24 02:00:00,
2013-03-23 22:05:00,70.6,64.5,29.89,East,96,0.0,0.0,81,0.00,,BKN047,0.06,VWS V14.01,2013-03-24 02:05:00,
2013-03-23 22:10:00,70.4,64.7,29.88,East,96,2.0,4.0,82,0.00,,BKN047,0.06,VWS V14.01,2013-03-24 02:10:00,
2013-03-23 22:15:00,70.2,64.4,29.88,East,91,12.0,12.0,82,0.00,,BKN047,0.06,VWS V14.01,2013-03-24 02:15:00,
2013-03-23 22:20:00,70.0,64.6,29.89,NE,37,0.0,0.0,83,0.00,,BKN047,0.06,VWS V14.01,2013-03-24 02:20:00,
2013-03-23 22:25:00,69.9,64.5,29.89,NE,50,0.0,0.0,83,0.00,,BKN047,0.06,VWS V14.01,2013-03-24 02:25:00,
2013-03-23 22:30:00,69.7,64.7,29.89,NE,50,0.0,0.0,84,0.00,,BKN047,0.06,VWS V14.01,2013-03-24 02:30:00,
2013-03-23 22:35:00,69.5,64.5,29.90,ESE,102,2.0,2.0,84,0.00,,BKN047,0.06,VWS V14.01,2013-03-24 02:35:00,
2013-03-23 22:40:00,69.4,64.7,29.89,ESE,105,0.0,0.0,85,0.00,,BKN047,0.06,VWS V14.01,2013-03-24 02:40:00,
2013-03-23 22:45:00,69.2,64.8,29.89,ESE,104,0.0,2.0,86,0.00,,BKN047,0.06,VWS V14.01,2013-03-24 02:45:00,
2013-03-23 22:50:00,69.0,64.6,29.89,ESE,104,0.0,0.0,86,0.00,,BKN047,0.06,VWS V14.01,2013-03-24 02:50:00,
2013-03-23 22:55:00,68.9,64.9,29.89,East,99,4.0,4.0,87,0.00,,BKN047,0.06,VWS V14.01,2013-03-24 02:55:00,
2013-03-23 23:00:00,68.9,65.2,29.89,East,99,2.0,2.0,88,0.00,,BKN110,0.06,VWS V14.01,2013-03-24 03:00:00,
2013-03-23 23:06:00,68.9,65.2,29.89,ESE,103,0.0,6.0,88,0.00,,BKN110,0.06,VWS V14.01,2013-03-24 03:06:00,
2013-03-23 23:11:00,68.8,65.1,29.89,ESE,103,2.0,2.0,88,0.00,,BKN110,0.06,VWS V14.01,2013-03-24 03:11:00,
2013-03-23 23:16:00,68.8,65.4,29.89,ESE,104,0.0,0.0,89,0.00,,BKN110,0.06,VWS V14.01,2013-03-24 03:16:00,
2013-03-23 23:22:00,68.8,65.4,29.89,ESE,104,2.0,2.0,89,0.00,,BKN110,0.06,VWS V14.01,2013-03-24 03:22:00,
2013-03-23 23:27:00,68.7,65.7,29.89,ESE,102,4.0,6.0,90,0.01,,BKN110,0.07,VWS V14.01,2013-03-24 03:27:00,
2013-03-23 23:32:00,68.5,65.8,29.88,ESE,102,0.0,6.0,91,0.01,,BKN110,0.07,VWS V14.01,2013-03-24 03:32:00,
2013-03-23 23:37:00,68.4,66.0,29.88,ESE,116,0.0,6.0,92,0.01,,BKN110,0.07,VWS V14.01,2013-03-24 03:37:00,
2013-03-23 23:42:00,68.4,66.0,29.88,East,86,0.0,4.0,92,0.01,,BKN110,0.07,VWS V14.01,2013-03-24 03:42:00,
2013-03-23 23:47:00,68.3,65.9,29.88,ESE,111,2.0,6.0,92,0.01,,BKN110,0.07,VWS V14.01,2013-03-24 03:47:00,
2013-03-23 23:53:00,68.1,65.7,29.88,East,91,0.0,2.0,92,0.01,,BKN110,0.07,VWS V14.01,2013-03-24 03:53:00,
2013-03-23 23:58:00,67.9,65.8,29.87,ESE,111,0.0,6.0,93,0.01,,BKN110,0.07,VWS V14.01,2013-03-24 03:58:00,